sensor_id;sensor_type;location;lat;lon;timestamp;pressure;altitude;pressure_sealevel;temperature;humidity
23677;BME280;31493;49.058;12.190;2022-07-25T00:01:56;96046.84;;;23.42;51.10
23677;BME280;31493;49.058;12.190;2022-07-25T00:04:23;96043.31;;;23.35;51.35
23677;BME280;31493;49.058;12.190;2022-07-25T00:06:50;96047.50;;;23.29;51.48
23677;BME280;31493;49.058;12.190;2022-07-25T00:09:17;96049.53;;;23.27;51.55
23677;BME280;31493;49.058;12.190;2022-07-25T00:11:44;96038.97;;;23.27;51.35
23677;BME280;31493;49.058;12.190;2022-07-25T00:14:11;96040.13;;;23.25;51.78
23677;BME280;31493;49.058;12.190;2022-07-25T00:16:40;96033.22;;;23.24;51.73
23677;BME280;31493;49.058;12.190;2022-07-25T00:19:07;96033.47;;;23.29;52.18
23677;BME280;31493;49.058;12.190;2022-07-25T00:21:34;96033.41;;;23.22;52.59
23677;BME280;31493;49.058;12.190;2022-07-25T00:24:01;96025.09;;;23.25;52.74
23677;BME280;31493;49.058;12.190;2022-07-25T00:26:28;96029.66;;;23.17;52.71
23677;BME280;31493;49.058;12.190;2022-07-25T00:28:55;96029.13;;;23.21;52.60
23677;BME280;31493;49.058;12.190;2022-07-25T00:31:22;96031.09;;;23.19;53.04
23677;BME280;31493;49.058;12.190;2022-07-25T00:33:50;96033.50;;;23.14;53.75
23677;BME280;31493;49.058;12.190;2022-07-25T00:36:17;96030.03;;;23.14;53.72
23677;BME280;31493;49.058;12.190;2022-07-25T00:38:45;96023.28;;;23.11;53.33
23677;BME280;31493;49.058;12.190;2022-07-25T00:41:12;96035.59;;;23.04;53.43
23677;BME280;31493;49.058;12.190;2022-07-25T00:43:42;96021.66;;;23.10;53.54
23677;BME280;31493;49.058;12.190;2022-07-25T00:46:11;96022.13;;;22.99;53.81
23677;BME280;31493;49.058;12.190;2022-07-25T00:48:38;96023.31;;;22.96;53.95
23677;BME280;31493;49.058;12.190;2022-07-25T00:51:07;96023.47;;;22.95;54.11
23677;BME280;31493;49.058;12.190;2022-07-25T00:53:34;96014.72;;;22.94;54.39
23677;BME280;31493;49.058;12.190;2022-07-25T00:56:02;96005.56;;;22.90;54.22
23677;BME280;31493;49.058;12.190;2022-07-25T00:58:29;96008.19;;;22.90;54.35
23677;BME280;31493;49.058;12.190;2022-07-25T01:00:56;95997.19;;;22.87;54.44
23677;BME280;31493;49.058;12.190;2022-07-25T01:03:24;95997.00;;;22.88;54.76
23677;BME280;31493;49.058;12.190;2022-07-25T01:05:51;96000.44;;;22.89;54.64
23677;BME280;31493;49.058;12.190;2022-07-25T01:08:21;95994.88;;;22.84;55.26
23677;BME280;31493;49.058;12.190;2022-07-25T01:10:48;95991.25;;;22.85;55.27
23677;BME280;31493;49.058;12.190;2022-07-25T01:13:15;95999.50;;;22.82;54.93
23677;BME280;31493;49.058;12.190;2022-07-25T01:15:42;95994.69;;;22.85;55.06
23677;BME280;31493;49.058;12.190;2022-07-25T01:18:10;95996.44;;;22.78;55.31
23677;BME280;31493;49.058;12.190;2022-07-25T01:20:38;95989.50;;;22.77;55.91
23677;BME280;31493;49.058;12.190;2022-07-25T01:23:05;95993.13;;;22.76;55.88
23677;BME280;31493;49.058;12.190;2022-07-25T01:25:32;95990.22;;;22.71;56.24
23677;BME280;31493;49.058;12.190;2022-07-25T01:27:59;95999.59;;;22.73;56.01
23677;BME280;31493;49.058;12.190;2022-07-25T01:30:26;95995.31;;;22.72;55.80
23677;BME280;31493;49.058;12.190;2022-07-25T01:32:53;95988.56;;;22.70;56.11
23677;BME280;31493;49.058;12.190;2022-07-25T01:35:21;95987.94;;;22.68;56.06
23677;BME280;31493;49.058;12.190;2022-07-25T01:37:49;95987.94;;;22.68;56.22
23677;BME280;31493;49.058;12.190;2022-07-25T01:40:16;95988.13;;;22.66;56.31
23677;BME280;31493;49.058;12.190;2022-07-25T01:42:43;95980.03;;;22.68;56.43
23677;BME280;31493;49.058;12.190;2022-07-25T01:45:11;95974.13;;;22.66;56.33
23677;BME280;31493;49.058;12.190;2022-07-25T01:47:39;95984.31;;;22.69;56.54
23677;BME280;31493;49.058;12.190;2022-07-25T01:50:07;95989.97;;;22.66;56.83
23677;BME280;31493;49.058;12.190;2022-07-25T01:52:35;95987.47;;;22.64;56.11
23677;BME280;31493;49.058;12.190;2022-07-25T01:55:05;95972.84;;;22.62;56.27
23677;BME280;31493;49.058;12.190;2022-07-25T01:57:32;95970.03;;;22.63;56.63
23677;BME280;31493;49.058;12.190;2022-07-25T01:59:59;95966.28;;;22.58;57.18
23677;BME280;31493;49.058;12.190;2022-07-25T02:02:26;95964.03;;;22.55;56.57
23677;BME280;31493;49.058;12.190;2022-07-25T02:04:54;95962.00;;;22.57;56.95
23677;BME280;31493;49.058;12.190;2022-07-25T02:07:21;95965.41;;;22.65;56.45
23677;BME280;31493;49.058;12.190;2022-07-25T02:09:48;95970.13;;;22.55;57.02
23677;BME280;31493;49.058;12.190;2022-07-25T02:12:16;95968.53;;;22.46;57.37
23677;BME280;31493;49.058;12.190;2022-07-25T02:14:43;95960.81;;;22.44;57.06
23677;BME280;31493;49.058;12.190;2022-07-25T02:17:10;95956.53;;;22.43;57.34
23677;BME280;31493;49.058;12.190;2022-07-25T02:19:38;95959.91;;;22.37;57.52
23677;BME280;31493;49.058;12.190;2022-07-25T02:22:05;95946.53;;;22.39;57.39
23677;BME280;31493;49.058;12.190;2022-07-25T02:24:32;95963.78;;;22.26;58.05
23677;BME280;31493;49.058;12.190;2022-07-25T02:26:59;95956.63;;;22.35;57.64
23677;BME280;31493;49.058;12.190;2022-07-25T02:29:28;95949.06;;;22.32;57.70
23677;BME280;31493;49.058;12.190;2022-07-25T02:31:55;95956.06;;;22.25;57.84
23677;BME280;31493;49.058;12.190;2022-07-25T02:34:22;95949.34;;;22.37;57.35
23677;BME280;31493;49.058;12.190;2022-07-25T02:36:49;95950.78;;;22.25;57.71
23677;BME280;31493;49.058;12.190;2022-07-25T02:39:16;95939.25;;;22.26;58.00
23677;BME280;31493;49.058;12.190;2022-07-25T02:41:43;95943.22;;;22.22;57.78
23677;BME280;31493;49.058;12.190;2022-07-25T02:44:10;95938.06;;;22.29;57.66
23677;BME280;31493;49.058;12.190;2022-07-25T02:46:38;95937.06;;;22.30;57.77
23677;BME280;31493;49.058;12.190;2022-07-25T02:49:05;95928.59;;;22.19;58.25
23677;BME280;31493;49.058;12.190;2022-07-25T02:51:33;95924.59;;;22.23;57.46
23677;BME280;31493;49.058;12.190;2022-07-25T02:54:00;95931.34;;;22.26;57.46
23677;BME280;31493;49.058;12.190;2022-07-25T02:56:27;95927.06;;;22.25;57.25
23677;BME280;31493;49.058;12.190;2022-07-25T02:58:54;95921.25;;;22.30;56.93
23677;BME280;31493;49.058;12.190;2022-07-25T03:01:21;95920.59;;;22.27;57.10
23677;BME280;31493;49.058;12.190;2022-07-25T03:03:49;95921.97;;;22.23;57.13
23677;BME280;31493;49.058;12.190;2022-07-25T03:06:16;95916.50;;;22.25;57.37
23677;BME280;31493;49.058;12.190;2022-07-25T03:08:43;95924.31;;;22.18;57.42
23677;BME280;31493;49.058;12.190;2022-07-25T03:11:11;95921.69;;;22.18;57.63
23677;BME280;31493;49.058;12.190;2022-07-25T03:13:38;95928.06;;;22.24;57.22
23677;BME280;31493;49.058;12.190;2022-07-25T03:16:06;95915.59;;;22.18;57.43
23677;BME280;31493;49.058;12.190;2022-07-25T03:18:33;95923.13;;;22.21;57.38
23677;BME280;31493;49.058;12.190;2022-07-25T03:21:01;95929.78;;;22.17;57.45
23677;BME280;31493;49.058;12.190;2022-07-25T03:23:28;95926.03;;;22.11;57.61
23677;BME280;31493;49.058;12.190;2022-07-25T03:25:56;95925.91;;;22.05;58.18
23677;BME280;31493;49.058;12.190;2022-07-25T03:28:23;95932.72;;;21.99;58.18
23677;BME280;31493;49.058;12.190;2022-07-25T03:30:51;95927.88;;;22.03;57.95
23677;BME280;31493;49.058;12.190;2022-07-25T03:33:18;95931.81;;;22.07;57.88
23677;BME280;31493;49.058;12.190;2022-07-25T03:35:45;95928.56;;;22.05;58.26
23677;BME280;31493;49.058;12.190;2022-07-25T03:38:13;95919.97;;;22.03;58.03
23677;BME280;31493;49.058;12.190;2022-07-25T03:40:40;95917.00;;;22.06;57.55
23677;BME280;31493;49.058;12.190;2022-07-25T03:43:08;95911.44;;;22.00;58.37
23677;BME280;31493;49.058;12.190;2022-07-25T03:45:35;95917.72;;;21.99;58.17
23677;BME280;31493;49.058;12.190;2022-07-25T03:48:02;95920.78;;;22.03;57.93
23677;BME280;31493;49.058;12.190;2022-07-25T03:50:30;95920.63;;;22.05;57.66
23677;BME280;31493;49.058;12.190;2022-07-25T03:52:57;95923.09;;;22.06;57.30
23677;BME280;31493;49.058;12.190;2022-07-25T03:55:26;95923.16;;;21.98;58.03
23677;BME280;31493;49.058;12.190;2022-07-25T03:57:53;95928.59;;;21.96;58.37
23677;BME280;31493;49.058;12.190;2022-07-25T04:00:20;95922.16;;;21.99;58.08
23677;BME280;31493;49.058;12.190;2022-07-25T04:02:47;95924.03;;;21.90;58.39
23677;BME280;31493;49.058;12.190;2022-07-25T04:05:14;95931.03;;;21.83;58.88
23677;BME280;31493;49.058;12.190;2022-07-25T04:07:41;95926.34;;;21.70;59.86
23677;BME280;31493;49.058;12.190;2022-07-25T04:10:09;95916.50;;;21.64;60.57
23677;BME280;31493;49.058;12.190;2022-07-25T04:12:38;95923.47;;;21.57;60.68
23677;BME280;31493;49.058;12.190;2022-07-25T04:15:06;95919.44;;;21.46;61.69
23677;BME280;31493;49.058;12.190;2022-07-25T04:17:33;95924.81;;;21.22;63.42
23677;BME280;31493;49.058;12.190;2022-07-25T04:20:00;95929.84;;;21.09;63.66
23677;BME280;31493;49.058;12.190;2022-07-25T04:22:27;95927.41;;;20.99;64.26
23677;BME280;31493;49.058;12.190;2022-07-25T04:24:54;95924.38;;;21.10;64.39
23677;BME280;31493;49.058;12.190;2022-07-25T04:27:21;95912.34;;;21.16;64.03
23677;BME280;31493;49.058;12.190;2022-07-25T04:29:49;95910.78;;;21.38;63.32
23677;BME280;31493;49.058;12.190;2022-07-25T04:32:16;95913.72;;;21.43;63.12
23677;BME280;31493;49.058;12.190;2022-07-25T04:34:44;95909.38;;;21.50;62.45
23677;BME280;31493;49.058;12.190;2022-07-25T04:37:11;95919.41;;;21.55;62.09
23677;BME280;31493;49.058;12.190;2022-07-25T04:39:38;95918.22;;;21.57;62.75
23677;BME280;31493;49.058;12.190;2022-07-25T04:42:05;95912.59;;;21.60;62.15
23677;BME280;31493;49.058;12.190;2022-07-25T04:44:33;95912.13;;;21.80;61.11
23677;BME280;31493;49.058;12.190;2022-07-25T04:47:01;95914.28;;;21.76;61.51
23677;BME280;31493;49.058;12.190;2022-07-25T04:49:29;95909.41;;;21.88;60.13
23677;BME280;31493;49.058;12.190;2022-07-25T04:51:55;95906.88;;;21.94;60.33
23677;BME280;31493;49.058;12.190;2022-07-25T04:54:23;95912.63;;;21.98;60.01
23677;BME280;31493;49.058;12.190;2022-07-25T04:56:50;95904.00;;;22.04;59.71
23677;BME280;31493;49.058;12.190;2022-07-25T04:59:17;95905.28;;;22.08;59.46
23677;BME280;31493;49.058;12.190;2022-07-25T05:01:44;95901.78;;;22.16;59.01
23677;BME280;31493;49.058;12.190;2022-07-25T05:04:12;95901.22;;;22.20;58.79
23677;BME280;31493;49.058;12.190;2022-07-25T05:06:39;95883.97;;;22.33;58.26
23677;BME280;31493;49.058;12.190;2022-07-25T05:09:06;95905.09;;;22.47;57.24
23677;BME280;31493;49.058;12.190;2022-07-25T05:11:33;95894.50;;;22.62;56.48
23677;BME280;31493;49.058;12.190;2022-07-25T05:14:00;95885.31;;;22.73;55.71
23677;BME280;31493;49.058;12.190;2022-07-25T05:16:27;95889.44;;;22.90;54.94
23677;BME280;31493;49.058;12.190;2022-07-25T05:18:54;95891.41;;;23.03;54.03
23677;BME280;31493;49.058;12.190;2022-07-25T05:21:23;95893.03;;;23.04;53.74
23677;BME280;31493;49.058;12.190;2022-07-25T05:23:50;95876.88;;;23.14;53.67
23677;BME280;31493;49.058;12.190;2022-07-25T05:26:17;95879.97;;;23.17;53.41
23677;BME280;31493;49.058;12.190;2022-07-25T05:28:44;95879.63;;;23.42;52.62
23677;BME280;31493;49.058;12.190;2022-07-25T05:31:11;95889.25;;;23.28;52.65
23677;BME280;31493;49.058;12.190;2022-07-25T05:33:38;95887.75;;;23.40;52.31
23677;BME280;31493;49.058;12.190;2022-07-25T05:36:05;95898.31;;;23.40;53.06
23677;BME280;31493;49.058;12.190;2022-07-25T05:38:34;95900.00;;;23.26;53.15
23677;BME280;31493;49.058;12.190;2022-07-25T05:41:01;95899.34;;;23.24;52.20
23677;BME280;31493;49.058;12.190;2022-07-25T05:43:29;95892.38;;;23.38;53.10
23677;BME280;31493;49.058;12.190;2022-07-25T05:45:59;95891.38;;;23.60;52.46
23677;BME280;31493;49.058;12.190;2022-07-25T05:48:26;95891.56;;;23.59;52.54
23677;BME280;31493;49.058;12.190;2022-07-25T05:50:53;95895.78;;;23.53;52.08
23677;BME280;31493;49.058;12.190;2022-07-25T05:53:20;95889.63;;;23.46;51.49
23677;BME280;31493;49.058;12.190;2022-07-25T05:55:48;95879.00;;;23.61;51.69
23677;BME280;31493;49.058;12.190;2022-07-25T05:58:15;95870.94;;;23.69;51.08
23677;BME280;31493;49.058;12.190;2022-07-25T06:00:43;95876.13;;;23.77;51.62
23677;BME280;31493;49.058;12.190;2022-07-25T06:03:10;95879.44;;;23.86;51.48
23677;BME280;31493;49.058;12.190;2022-07-25T06:05:37;95864.34;;;23.58;51.31
23677;BME280;31493;49.058;12.190;2022-07-25T06:08:04;95869.50;;;23.67;51.41
23677;BME280;31493;49.058;12.190;2022-07-25T06:10:31;95868.56;;;23.74;51.17
23677;BME280;31493;49.058;12.190;2022-07-25T06:13:00;95864.34;;;23.58;51.02
23677;BME280;31493;49.058;12.190;2022-07-25T06:15:27;95880.47;;;23.64;51.06
23677;BME280;31493;49.058;12.190;2022-07-25T06:17:54;95889.38;;;23.84;51.79
23677;BME280;31493;49.058;12.190;2022-07-25T06:20:21;95882.28;;;23.84;51.45
23677;BME280;31493;49.058;12.190;2022-07-25T06:22:49;95874.19;;;23.50;52.08
23677;BME280;31493;49.058;12.190;2022-07-25T06:25:16;95880.44;;;23.85;51.95
23677;BME280;31493;49.058;12.190;2022-07-25T06:27:43;95877.09;;;23.98;51.36
23677;BME280;31493;49.058;12.190;2022-07-25T06:30:12;95877.47;;;23.95;50.79
23677;BME280;31493;49.058;12.190;2022-07-25T06:32:39;95876.41;;;24.17;49.79
23677;BME280;31493;49.058;12.190;2022-07-25T06:35:07;95873.31;;;24.07;50.19
23677;BME280;31493;49.058;12.190;2022-07-25T06:37:36;95874.06;;;24.01;50.39
23677;BME280;31493;49.058;12.190;2022-07-25T06:40:04;95868.25;;;23.84;50.63
23677;BME280;31493;49.058;12.190;2022-07-25T06:42:31;95857.31;;;23.94;50.67
23677;BME280;31493;49.058;12.190;2022-07-25T06:45:02;95849.22;;;24.30;49.77
23677;BME280;31493;49.058;12.190;2022-07-25T06:47:31;95846.91;;;24.13;50.24
23677;BME280;31493;49.058;12.190;2022-07-25T06:49:58;95835.19;;;24.29;50.08
23677;BME280;31493;49.058;12.190;2022-07-25T06:52:25;95839.47;;;24.65;48.19
23677;BME280;31493;49.058;12.190;2022-07-25T06:54:52;95840.44;;;24.51;48.40
23677;BME280;31493;49.058;12.190;2022-07-25T06:57:19;95839.88;;;24.62;47.81
23677;BME280;31493;49.058;12.190;2022-07-25T06:59:46;95839.56;;;24.37;48.60
23677;BME280;31493;49.058;12.190;2022-07-25T07:02:13;95839.66;;;24.57;47.69
23677;BME280;31493;49.058;12.190;2022-07-25T07:04:41;95847.53;;;24.98;48.39
23677;BME280;31493;49.058;12.190;2022-07-25T07:07:08;95836.97;;;24.50;47.85
23677;BME280;31493;49.058;12.190;2022-07-25T07:09:35;95835.81;;;24.73;47.57
23677;BME280;31493;49.058;12.190;2022-07-25T07:12:03;95834.97;;;24.59;47.87
23677;BME280;31493;49.058;12.190;2022-07-25T07:14:30;95838.22;;;24.61;47.57
23677;BME280;31493;49.058;12.190;2022-07-25T07:16:57;95824.50;;;24.92;47.47
23677;BME280;31493;49.058;12.190;2022-07-25T07:19:24;95827.97;;;24.92;47.08
23677;BME280;31493;49.058;12.190;2022-07-25T07:21:53;95827.56;;;24.96;47.37
23677;BME280;31493;49.058;12.190;2022-07-25T07:24:20;95821.50;;;25.08;46.79
23677;BME280;31493;49.058;12.190;2022-07-25T07:26:47;95823.75;;;25.05;47.09
23677;BME280;31493;49.058;12.190;2022-07-25T07:29:14;95817.84;;;25.09;47.46
23677;BME280;31493;49.058;12.190;2022-07-25T07:31:41;95819.50;;;25.17;48.13
23677;BME280;31493;49.058;12.190;2022-07-25T07:34:08;95811.97;;;25.21;47.47
23677;BME280;31493;49.058;12.190;2022-07-25T07:36:36;95815.44;;;25.21;47.41
23677;BME280;31493;49.058;12.190;2022-07-25T07:39:04;95805.38;;;25.03;47.78
23677;BME280;31493;49.058;12.190;2022-07-25T07:41:31;95807.88;;;25.05;48.19
23677;BME280;31493;49.058;12.190;2022-07-25T07:43:58;95814.81;;;25.19;48.19
23677;BME280;31493;49.058;12.190;2022-07-25T07:46:25;95809.72;;;25.17;48.12
23677;BME280;31493;49.058;12.190;2022-07-25T07:48:52;95809.75;;;25.24;48.98
23677;BME280;31493;49.058;12.190;2022-07-25T07:51:19;95817.25;;;25.21;49.72
23677;BME280;31493;49.058;12.190;2022-07-25T07:53:46;95809.75;;;25.24;49.74
23677;BME280;31493;49.058;12.190;2022-07-25T07:56:35;95809.97;;;25.36;48.98
23677;BME280;31493;49.058;12.190;2022-07-25T07:59:02;95812.19;;;25.39;48.58
23677;BME280;31493;49.058;12.190;2022-07-25T08:01:29;95825.81;;;25.23;49.51
23677;BME280;31493;49.058;12.190;2022-07-25T08:03:56;95823.44;;;25.61;48.84
23677;BME280;31493;49.058;12.190;2022-07-25T08:06:24;95821.59;;;25.41;49.39
23677;BME280;31493;49.058;12.190;2022-07-25T08:08:52;95815.06;;;25.57;48.95
23677;BME280;31493;49.058;12.190;2022-07-25T08:11:19;95830.81;;;25.85;48.48
23677;BME280;31493;49.058;12.190;2022-07-25T08:13:47;95814.66;;;25.60;49.55
23677;BME280;31493;49.058;12.190;2022-07-25T08:16:14;95820.16;;;26.12;48.93
23677;BME280;31493;49.058;12.190;2022-07-25T08:18:41;95825.44;;;26.25;47.83
23677;BME280;31493;49.058;12.190;2022-07-25T08:21:09;95821.41;;;26.03;48.02
23677;BME280;31493;49.058;12.190;2022-07-25T08:23:36;95817.06;;;26.28;48.32
23677;BME280;31493;49.058;12.190;2022-07-25T08:26:04;95818.97;;;25.88;48.26
23677;BME280;31493;49.058;12.190;2022-07-25T08:28:32;95822.19;;;26.23;48.39
23677;BME280;31493;49.058;12.190;2022-07-25T08:31:00;95830.28;;;26.55;46.70
23677;BME280;31493;49.058;12.190;2022-07-25T08:33:27;95826.88;;;26.28;47.73
23677;BME280;31493;49.058;12.190;2022-07-25T08:35:55;95825.78;;;26.55;46.80
23677;BME280;31493;49.058;12.190;2022-07-25T08:38:24;95826.19;;;26.39;47.18
23677;BME280;31493;49.058;12.190;2022-07-25T08:40:52;95824.13;;;26.61;47.12
23677;BME280;31493;49.058;12.190;2022-07-25T08:43:19;95830.78;;;26.83;46.92
23677;BME280;31493;49.058;12.190;2022-07-25T08:45:48;95824.56;;;27.02;46.69
23677;BME280;31493;49.058;12.190;2022-07-25T08:48:17;95814.34;;;26.99;45.55
23677;BME280;31493;49.058;12.190;2022-07-25T08:50:45;95819.38;;;27.21;45.03
23677;BME280;31493;49.058;12.190;2022-07-25T08:53:13;95811.88;;;27.04;45.23
23677;BME280;31493;49.058;12.190;2022-07-25T08:55:40;95807.81;;;27.02;45.17
23677;BME280;31493;49.058;12.190;2022-07-25T08:58:10;95801.47;;;27.10;45.13
23677;BME280;31493;49.058;12.190;2022-07-25T09:00:37;95791.03;;;26.63;45.92
23677;BME280;31493;49.058;12.190;2022-07-25T09:03:05;95788.34;;;27.15;44.44
23677;BME280;31493;49.058;12.190;2022-07-25T09:05:34;95789.13;;;27.47;45.04
23677;BME280;31493;49.058;12.190;2022-07-25T09:08:06;95786.38;;;27.60;45.22
23677;BME280;31493;49.058;12.190;2022-07-25T09:10:34;95788.47;;;27.83;43.70
23677;BME280;31493;49.058;12.190;2022-07-25T09:13:03;95785.69;;;27.71;43.54
23677;BME280;31493;49.058;12.190;2022-07-25T09:15:34;95779.84;;;27.56;43.35
23677;BME280;31493;49.058;12.190;2022-07-25T09:18:03;95781.41;;;27.70;44.21
23677;BME280;31493;49.058;12.190;2022-07-25T09:20:43;95796.78;;;27.93;43.54
23677;BME280;31493;49.058;12.190;2022-07-25T09:23:11;95775.19;;;27.26;43.59
23677;BME280;31493;49.058;12.190;2022-07-25T09:25:39;95775.19;;;28.01;44.23
23677;BME280;31493;49.058;12.190;2022-07-25T09:28:13;95778.97;;;28.12;43.82
23677;BME280;31493;49.058;12.190;2022-07-25T09:30:51;95773.72;;;27.87;42.80
23677;BME280;31493;49.058;12.190;2022-07-25T09:33:20;95767.22;;;28.01;43.93
23677;BME280;31493;49.058;12.190;2022-07-25T09:35:49;95776.13;;;28.32;42.90
23677;BME280;31493;49.058;12.190;2022-07-25T09:38:18;95769.59;;;28.46;41.96
23677;BME280;31493;49.058;12.190;2022-07-25T09:40:56;95776.63;;;28.59;42.21
23677;BME280;31493;49.058;12.190;2022-07-25T09:43:34;95772.03;;;28.48;42.29
23677;BME280;31493;49.058;12.190;2022-07-25T09:46:02;95772.16;;;28.71;42.09
23677;BME280;31493;49.058;12.190;2022-07-25T09:48:28;95771.66;;;28.07;42.48
23677;BME280;31493;49.058;12.190;2022-07-25T09:50:58;95763.84;;;28.31;42.77
23677;BME280;31493;49.058;12.190;2022-07-25T09:53:25;95753.03;;;28.62;42.87
23677;BME280;31493;49.058;12.190;2022-07-25T09:55:52;95755.41;;;28.82;42.13
23677;BME280;31493;49.058;12.190;2022-07-25T09:58:21;95750.53;;;28.98;41.48
23677;BME280;31493;49.058;12.190;2022-07-25T10:00:50;95744.78;;;29.12;41.14
23677;BME280;31493;49.058;12.190;2022-07-25T10:03:25;95749.25;;;29.42;41.28
23677;BME280;31493;49.058;12.190;2022-07-25T10:06:05;95749.81;;;29.44;40.53
23677;BME280;31493;49.058;12.190;2022-07-25T10:08:35;95748.50;;;29.65;41.17
23677;BME280;31493;49.058;12.190;2022-07-25T10:11:03;95744.78;;;29.78;40.61
23677;BME280;31493;49.058;12.190;2022-07-25T10:13:32;95748.00;;;29.56;40.65
23677;BME280;31493;49.058;12.190;2022-07-25T10:16:01;95734.00;;;29.84;40.94
23677;BME280;31493;49.058;12.190;2022-07-25T10:18:29;95736.41;;;29.97;40.27
23677;BME280;31493;49.058;12.190;2022-07-25T10:21:08;95720.97;;;30.00;39.67
23677;BME280;31493;49.058;12.190;2022-07-25T10:23:36;95717.75;;;29.86;39.92
23677;BME280;31493;49.058;12.190;2022-07-25T10:26:07;95721.78;;;30.23;40.17
23677;BME280;31493;49.058;12.190;2022-07-25T10:28:41;95720.09;;;30.46;39.26
23677;BME280;31493;49.058;12.190;2022-07-25T10:31:20;95725.13;;;30.07;39.36
23677;BME280;31493;49.058;12.190;2022-07-25T10:33:51;95720.03;;;30.29;39.15
23677;BME280;31493;49.058;12.190;2022-07-25T10:36:20;95719.47;;;30.27;38.75
23677;BME280;31493;49.058;12.190;2022-07-25T10:38:50;95715.88;;;29.86;40.08
23677;BME280;31493;49.058;12.190;2022-07-25T10:41:18;95715.25;;;30.31;39.38
23677;BME280;31493;49.058;12.190;2022-07-25T10:43:46;95715.16;;;30.26;38.76
23677;BME280;31493;49.058;12.190;2022-07-25T10:46:17;95705.59;;;30.42;38.63
23677;BME280;31493;49.058;12.190;2022-07-25T10:48:56;95707.94;;;30.67;38.92
23677;BME280;31493;49.058;12.190;2022-07-25T10:51:30;95704.25;;;30.56;38.18
23677;BME280;31493;49.058;12.190;2022-07-25T10:53:57;95702.06;;;30.53;38.78
23677;BME280;31493;49.058;12.190;2022-07-25T10:56:27;95706.97;;;30.85;38.61
23677;BME280;31493;49.058;12.190;2022-07-25T10:58:55;95702.97;;;30.87;38.25
23677;BME280;31493;49.058;12.190;2022-07-25T11:01:24;95701.22;;;30.76;37.91
23677;BME280;31493;49.058;12.190;2022-07-25T11:03:53;95701.19;;;31.21;38.39
23677;BME280;31493;49.058;12.190;2022-07-25T11:06:32;95700.06;;;31.34;38.63
23677;BME280;31493;49.058;12.190;2022-07-25T11:09:00;95696.19;;;31.25;38.30
23677;BME280;31493;49.058;12.190;2022-07-25T11:11:32;95684.84;;;31.51;37.88
23677;BME280;31493;49.058;12.190;2022-07-25T11:14:00;95689.75;;;31.43;37.05
23677;BME280;31493;49.058;12.190;2022-07-25T11:16:27;95682.41;;;31.33;38.44
23677;BME280;31493;49.058;12.190;2022-07-25T11:18:54;95688.16;;;31.59;37.79
23677;BME280;31493;49.058;12.190;2022-07-25T11:21:21;95679.34;;;31.24;37.62
23677;BME280;31493;49.058;12.190;2022-07-25T11:23:51;95671.38;;;31.29;37.46
23677;BME280;31493;49.058;12.190;2022-07-25T11:26:18;95656.69;;;31.49;38.21
23677;BME280;31493;49.058;12.190;2022-07-25T11:28:47;95668.34;;;31.60;36.34
23677;BME280;31493;49.058;12.190;2022-07-25T11:31:16;95664.94;;;32.03;36.70
23677;BME280;31493;49.058;12.190;2022-07-25T11:33:46;95670.00;;;32.21;36.43
23677;BME280;31493;49.058;12.190;2022-07-25T11:36:14;95660.22;;;31.88;35.85
23677;BME280;31493;49.058;12.190;2022-07-25T11:38:46;95661.91;;;32.16;35.63
23677;BME280;31493;49.058;12.190;2022-07-25T11:41:15;95654.97;;;31.60;35.72
23677;BME280;31493;49.058;12.190;2022-07-25T11:43:46;95650.28;;;32.05;35.83
23677;BME280;31493;49.058;12.190;2022-07-25T11:46:14;95654.00;;;30.98;36.32
23677;BME280;31493;49.058;12.190;2022-07-25T11:48:42;95643.38;;;31.32;38.04
23677;BME280;31493;49.058;12.190;2022-07-25T11:51:12;95644.03;;;32.22;36.32
23677;BME280;31493;49.058;12.190;2022-07-25T11:53:44;95636.50;;;32.19;36.09
23677;BME280;31493;49.058;12.190;2022-07-25T11:56:17;95637.22;;;32.58;35.46
23677;BME280;31493;49.058;12.190;2022-07-25T11:58:55;95635.19;;;32.43;36.00
23677;BME280;31493;49.058;12.190;2022-07-25T12:01:24;95642.44;;;32.97;34.85
23677;BME280;31493;49.058;12.190;2022-07-25T12:03:51;95630.00;;;32.58;34.71
23677;BME280;31493;49.058;12.190;2022-07-25T12:06:18;95632.97;;;32.13;34.72
23677;BME280;31493;49.058;12.190;2022-07-25T12:08:45;95626.19;;;31.67;36.55
23677;BME280;31493;49.058;12.190;2022-07-25T12:11:18;95614.34;;;32.72;35.08
23677;BME280;31493;49.058;12.190;2022-07-25T12:13:45;95614.13;;;32.79;35.39
23677;BME280;31493;49.058;12.190;2022-07-25T12:16:12;95616.19;;;32.45;35.13
23677;BME280;31493;49.058;12.190;2022-07-25T12:18:40;95598.25;;;32.72;34.87
23677;BME280;31493;49.058;12.190;2022-07-25T12:21:07;95610.44;;;32.58;34.75
23677;BME280;31493;49.058;12.190;2022-07-25T12:23:34;95598.63;;;32.59;34.78
23677;BME280;31493;49.058;12.190;2022-07-25T12:26:02;95601.66;;;32.95;33.86
23677;BME280;31493;49.058;12.190;2022-07-25T12:28:30;95590.41;;;32.93;35.76
23677;BME280;31493;49.058;12.190;2022-07-25T12:30:57;95584.06;;;32.77;34.09
23677;BME280;31493;49.058;12.190;2022-07-25T12:33:24;95591.16;;;32.88;34.39
23677;BME280;31493;49.058;12.190;2022-07-25T12:35:51;95587.53;;;33.04;33.91
23677;BME280;31493;49.058;12.190;2022-07-25T12:38:18;95585.53;;;33.27;34.73
23677;BME280;31493;49.058;12.190;2022-07-25T12:40:45;95581.09;;;33.05;32.86
23677;BME280;31493;49.058;12.190;2022-07-25T12:43:12;95575.13;;;32.93;33.91
23677;BME280;31493;49.058;12.190;2022-07-25T12:45:41;95571.22;;;33.48;33.74
23677;BME280;31493;49.058;12.190;2022-07-25T12:48:08;95571.22;;;33.48;33.19
23677;BME280;31493;49.058;12.190;2022-07-25T12:50:35;95555.53;;;33.30;32.73
23677;BME280;31493;49.058;12.190;2022-07-25T12:53:02;95572.91;;;33.69;33.06
23677;BME280;31493;49.058;12.190;2022-07-25T12:55:30;95569.22;;;33.81;31.60